Latest Weather Observations for Lajamanu

IDD60801

Issued at 2:31 pm CST Sunday 24 May 2015 (issued every 30 minutes, with the page automatically refreshed every 10 minutes)

About weather observations | Map of weather stations | Latest weather observations for NT | Other Formats
Station Details ID: 014829 Name: LAJAMANU AIRPORT Lat: -18.33 Lon: 130.64 Height: 315.6 m
Data from the previous 72 hours. | See also: Recent months at Lajamanu
Date/Time
CST
Temp
°C
App
Temp
°C
Dew
Point
Rel
Hum
%
Delta-T
°C
Wind Press
QNH
hPa
Press
MSL
hPa
Rain
since 9 am
mm
Dir
 
Spd
km/h
Gust
km/h
Spd
kts
Gust
kts
24/02:30pm 26.0 20.9 -1.7 16 12.6 ESE 15 22 8 12 1017.5 1016.2 0.0
24/02:00pm 25.1 20.4 -1.6 17 12.1 SE 13 20 7 11 1017.8 1016.6 0.0
24/01:30pm 25.6 21.0 -1.2 17 12.3 ENE 13 28 7 15 1018.4 1017.2 0.0
24/01:00pm 24.0 18.6 -1.0 19 11.4 E 17 26 9 14 1018.9 1017.7 0.0
24/12:30pm 23.5 18.6 -0.7 20 11.0 ESE 15 24 8 13 1019.6 1018.3 0.0
24/12:00pm 23.2 18.4 0.3 22 10.6 E 15 24 8 13 1019.8 1018.5 0.0
24/11:30am 22.7 16.9 -0.1 22 10.4 E 20 32 11 17 1020.2 1018.9 0.0
24/11:00am 22.1 16.4 0.6 24 9.9 E 20 30 11 16 1020.8 1019.6 0.0
24/10:30am 20.9 15.1 -0.4 24 9.5 E 20 30 11 16 1020.9 1019.7 0.0
24/10:00am 19.8 13.3 0.3 27 8.8 E 24 32 13 17 1020.8 1019.6 0.0
24/09:30am 19.0 13.5 0.6 29 8.3 E 19 30 10 16 1021.2 1020.0 0.0
24/09:00am 17.6 12.1 0.3 31 7.6 E 19 28 10 15 1021.0 1019.8 0.0
24/08:30am 16.1 11.3 0.3 34 6.9 ESE 15 26 8 14 1020.7 1019.5 0.0
24/08:00am 13.9 10.3 0.5 40 5.8 SE 9 13 5 7 1020.7 1019.5 0.0
24/07:30am 11.8 8.5 0.3 45 4.8 ESE 7 9 4 5 1020.3 1019.0 0.0
24/07:00am 11.9 8.3 0.4 45 4.8 SE 9 11 5 6 1019.9 1018.6 0.0
24/06:30am 12.1 8.3 -0.4 42 5.2 ESE 9 13 5 7 1019.6 1018.3 0.0
24/06:00am 12.7 8.6 -0.2 41 5.4 ESE 11 13 6 7 1019.3 1018.1 0.0
24/05:30am 12.8 8.7 -0.1 41 5.4 ESE 11 13 6 7 1019.0 1017.8 0.0
24/05:00am 13.1 9.0 -0.5 39 5.7 ESE 11 13 6 7 1019.2 1018.0 0.0
24/04:30am 13.8 10.0 -0.6 37 6.0 ESE 9 11 5 6 1019.1 1017.9 0.0
24/04:00am 14.1 9.9 -0.7 36 6.2 ESE 11 15 6 8 1018.9 1017.7 0.0
24/03:30am 14.1 9.9 -0.7 36 6.2 ESE 11 13 6 7 1018.9 1017.7 0.0
24/03:00am 15.0 10.8 -0.7 34 6.6 ESE 11 17 6 9 1019.1 1017.9 0.0
24/02:30am 14.7 10.5 -1.0 34 6.6 SE 11 15 6 8 1019.3 1018.1 0.0
24/02:00am 14.5 11.0 -1.2 34 6.5 SE 7 11 4 6 1019.5 1018.2 0.0
24/01:30am 14.9 11.0 -1.2 33 6.7 ESE 9 13 5 7 1019.5 1018.2 0.0
24/01:00am 14.7 10.4 -1.8 32 6.8 E 11 13 6 7 1019.2 1018.0 0.0
24/12:30am 16.0 12.1 -1.5 30 7.3 SE 9 13 5 7 1019.8 1018.5 0.0
24/12:00am 16.7 12.0 -1.9 28 7.8 SE 13 17 7 9 1019.7 1018.4 0.0
 
Date/Time
CST
Temp
°C
App
Temp
°C
Dew
Point
Rel
Hum
%
Delta-T
°C
Wind Press
QNH
hPa
Press
MSL
hPa
Rain
since 9 am
mm
Dir
 
Spd
km/h
Gust
km/h
Spd
kts
Gust
kts
23/11:30pm 16.9 12.6 -1.7 28 7.8 SE 11 15 6 8 1019.8 1018.5 0.0
23/11:00pm 17.1 13.1 -2.0 27 8.0 SE 9 13 5 7 1020.0 1018.7 0.0
23/10:30pm 16.6 12.6 -2.5 27 7.9 SE 9 11 5 6 1019.9 1018.6 0.0
23/10:00pm 17.0 13.0 -2.1 27 8.0 ESE 9 13 5 7 1019.8 1018.5 0.0
23/09:30pm 17.3 12.9 -2.4 26 8.2 ESE 11 13 6 7 1019.7 1018.4 0.0
23/09:00pm 18.1 13.7 -2.8 24 8.7 ESE 11 15 6 8 1019.5 1018.2 0.0
23/08:30pm 18.2 13.8 -2.7 24 8.7 ESE 11 15 6 8 1019.3 1018.1 0.0
23/08:00pm 18.8 14.7 -2.7 23 9.0 ESE 9 13 5 7 1019.2 1018.0 0.0
23/07:30pm 19.8 15.7 -3.1 21 9.6 ESE 9 13 5 7 1019.0 1017.8 0.0
23/07:00pm 21.4 16.4 -3.9 18 10.6 SE 13 17 7 9 1018.7 1017.5 0.0
23/06:30pm 22.4 17.5 -3.8 17 11.1 SE 13 15 7 8 1018.5 1017.3 0.0
23/06:00pm 23.9 18.5 -4.3 15 12.0 SE 15 20 8 11 1018.2 1017.0 0.0
23/05:30pm 25.1 19.3 -4.2 14 12.7 ESE 17 22 9 12 1018.0 1016.8 0.0
23/05:00pm 25.6 19.4 -4.8 13 13.1 E 19 24 10 13 1017.6 1016.4 0.0
23/04:30pm 25.8 20.1 -3.7 14 12.9 ESE 17 20 9 11 1017.7 1016.5 0.0
23/04:00pm 25.9 20.5 -4.6 13 13.2 ESE 15 24 8 13 1017.7 1016.5 0.0
23/03:30pm 26.3 21.0 -3.3 14 13.1 ESE 15 24 8 13 1017.9 1016.7 0.0
23/03:00pm 25.9 20.2 -3.6 14 13.0 ESE 17 26 9 14 1018.1 1016.9 0.0
23/02:30pm 25.1 19.7 -4.2 14 12.7 E 15 24 8 13 1018.4 1017.2 0.0
23/02:00pm 25.1 19.8 -3.3 15 12.5 ESE 15 24 8 13 1019.0 1017.8 0.0
23/01:30pm 24.5 19.0 -2.1 17 11.9 E 17 28 9 15 1019.8 1018.5 0.0
23/01:00pm 23.5 17.6 -2.2 18 11.4 ESE 19 30 10 16 1020.5 1019.3 0.0
23/12:30pm 23.0 17.4 -2.6 18 11.2 E 17 28 9 15 1021.0 1019.8 0.0
23/12:00pm 22.2 16.3 -1.1 21 10.4 ESE 20 30 11 16 1021.6 1020.4 0.0
23/11:30am 21.6 15.5 -2.3 20 10.4 ESE 20 32 11 17 1022.2 1021.0 0.0
23/11:00am 20.5 14.0 -2.5 21 9.9 E 22 33 12 18 1022.8 1021.5 0.0
23/10:30am 20.3 13.5 -1.5 23 9.5 E 24 32 13 17 1022.9 1021.6 0.0
23/10:00am 19.2 12.5 -1.3 25 8.9 E 24 33 13 18 1022.9 1021.6 0.0
23/09:30am 18.2 11.4 -1.6 26 8.4 ESE 24 39 13 21 1022.9 1021.6 0.0
23/09:00am 16.5 10.1 -2.0 28 7.7 E 22 30 12 16 1023.0 1021.7 0.0
23/08:30am 15.6 9.6 -1.9 30 7.2 E 20 35 11 19 1022.8 1021.5 0.0
23/08:00am 13.9 8.8 -1.7 34 6.4 ESE 15 20 8 11 1022.5 1021.3 0.0
23/07:30am 12.6 8.0 -1.0 39 5.6 ESE 13 19 7 10 1022.3 1021.1 0.0
23/07:00am 12.4 7.8 -0.8 40 5.4 ESE 13 17 7 9 1021.9 1020.7 0.0
23/06:30am 12.2 8.0 -0.6 41 5.3 ESE 11 13 6 7 1021.6 1020.4 0.0
23/06:00am 12.7 8.2 -0.5 40 5.5 ESE 13 15 7 8 1021.5 1020.3 0.0
23/05:30am 12.8 9.1 -0.1 41 5.4 SE 9 13 5 7 1021.4 1020.2 0.0
23/05:00am 12.5 8.9 0.3 43 5.2 ESE 9 11 5 6 1021.2 1020.0 0.0
23/04:30am 13.2 9.6 0.3 41 5.5 ESE 9 11 5 6 1021.2 1020.0 0.0
23/04:00am 14.2 10.6 0.5 39 5.9 SE 9 13 5 7 1021.3 1020.1 0.0
23/03:30am 14.7 10.7 0.2 37 6.2 ESE 11 15 6 8 1021.0 1019.8 0.0
23/03:00am 15.3 10.9 0.3 36 6.5 ESE 13 17 7 9 1020.7 1019.5 0.0
23/02:30am 15.8 11.1 0.8 36 6.6 ESE 15 20 8 11 1021.0 1019.8 0.0
23/02:00am 15.5 11.7 2.0 40 6.1 ESE 11 15 6 8 1021.1 1019.9 0.0
23/01:30am 15.9 12.3 2.7 41 6.0 SE 11 15 6 8 1021.1 1019.9 0.0
23/01:00am 16.5 12.8 2.5 39 6.4 SE 11 15 6 8 1021.0 1019.8 0.0
23/12:30am 17.2 13.1 2.4 37 6.8 SE 13 17 7 9 1021.2 1020.0 0.0
23/12:00am 17.9 13.9 2.6 36 7.1 SE 13 19 7 10 1021.2 1020.0 0.0
 
Date/Time
CST
Temp
°C
App
Temp
°C
Dew
Point
Rel
Hum
%
Delta-T
°C
Wind Press
QNH
hPa
Press
MSL
hPa
Rain
since 9 am
mm
Dir
 
Spd
km/h
Gust
km/h
Spd
kts
Gust
kts
22/11:30pm 18.2 14.2 2.9 36 7.2 ESE 13 19 7 10 1021.4 1020.2 0.0
22/11:00pm 18.5 14.1 2.8 35 7.4 ESE 15 19 8 10 1021.3 1020.1 0.0
22/10:30pm 18.5 14.9 3.2 36 7.2 ESE 11 15 6 8 1021.3 1020.1 0.0
22/10:00pm 19.2 15.4 3.8 36 7.4 SE 13 15 7 8 1021.4 1020.2 0.0
22/09:30pm 19.6 16.1 3.7 35 7.6 SE 11 13 6 7 1021.4 1020.2 0.0
22/09:00pm 20.3 16.4 3.5 33 8.1 SE 13 17 7 9 1021.2 1020.0 0.0
22/08:30pm 20.9 17.0 3.6 32 8.4 ESE 13 17 7 9 1020.9 1019.7 0.0
22/08:00pm 21.4 17.5 3.6 31 8.7 SE 13 19 7 10 1020.5 1019.3 0.0
22/07:30pm 22.1 17.9 3.7 30 9.0 ESE 15 19 8 10 1020.2 1018.9 0.0
22/07:00pm 22.7 18.5 3.8 29 9.3 ESE 15 19 8 10 1019.9 1018.6 0.0
22/06:30pm 23.3 19.1 3.8 28 9.6 SE 15 20 8 11 1019.6 1018.3 0.0
22/06:00pm 24.4 19.3 4.2 27 10.1 ESE 20 28 11 15 1019.5 1018.2 0.0
22/05:30pm 25.3 20.4 3.9 25 10.7 SE 19 28 10 15 1019.0 1017.8 0.0
22/05:00pm 26.1 20.2 4.0 24 11.2 ESE 24 30 13 16 1018.8 1017.6 0.0
22/04:30pm 26.5 20.7 4.3 24 11.3 ESE 24 32 13 17 1018.5 1017.3 0.0
22/04:00pm 26.6 21.6 4.4 24 11.4 SE 20 28 11 15 1018.5 1017.3 0.0
22/03:30pm 26.6 21.7 5.0 25 11.2 SE 20 28 11 15 1018.8 1017.6 0.0
22/03:00pm 26.9 21.5 4.6 24 11.5 ESE 22 32 12 17 1019.0 1017.8 0.0
22/02:30pm 26.5 21.6 4.3 24 11.3 ESE 19 28 10 15 1019.2 1018.0 0.0
22/02:00pm 25.9 20.1 4.4 25 11.0 ESE 24 33 13 18 1019.8 1018.5 0.0
22/01:30pm 25.5 20.4 4.0 25 10.8 ESE 20 32 11 17 1020.1 1018.8 0.0
22/01:00pm 24.8 19.4 4.5 27 10.3 ESE 22 33 12 18 1020.7 1019.5 0.0
22/12:30pm 24.4 19.4 4.7 28 10.0 SE 20 28 11 15 1021.4 1020.2 0.0
22/12:00pm 23.5 18.1 4.5 29 9.5 ESE 22 32 12 17 1022.0 1020.8 0.0
22/11:30am 23.0 17.2 4.5 30 9.2 ESE 24 37 13 20 1022.3 1021.1 0.0
22/11:00am 21.7 15.5 4.3 32 8.6 E 26 39 14 21 1022.8 1021.5 0.0
22/10:30am 21.8 16.0 4.4 32 8.6 E 24 37 13 20 1023.2 1022.0 0.0
22/10:00am 20.6 14.4 4.2 34 8.0 E 26 37 14 20 1023.1 1021.8 0.0
22/09:30am 19.8 12.8 4.3 36 7.5 ESE 30 46 16 25 1023.6 1022.4 0.0
22/09:28am 20.2 13.7 4.7 36 7.6 ESE 28 46 15 25 1023.6 1022.4 0.0
22/09:00am 19.1 13.0 4.8 39 7.0 ESE 26 39 14 21 1023.3 1022.1 0.0
22/08:30am 18.4 13.5 5.3 42 6.4 ESE 20 33 11 18 1023.0 1021.7 0.0
22/08:00am 17.0 12.8 5.9 48 5.5 ESE 17 24 9 13 1022.8 1021.5 0.0
22/07:30am 16.0 12.6 5.9 51 4.9 SE 13 17 7 9 1022.4 1021.2 0.0
22/07:00am 16.0 12.6 5.9 51 5.0 ESE 13 17 7 9 1021.6 1020.4 0.0
22/06:30am 16.6 12.9 6.1 50 5.2 SE 15 20 8 11 1021.4 1020.2 0.0
22/06:00am 17.2 13.1 6.1 48 5.5 ESE 17 20 9 11 1020.8 1019.6 0.0
22/05:30am 17.6 13.2 6.5 48 5.6 ESE 19 26 10 14 1020.4 1019.2 0.0
22/05:00am 17.8 13.8 6.7 48 5.6 SE 17 20 9 11 1020.4 1019.2 0.0
22/04:30am 18.2 14.6 6.7 47 5.8 ESE 15 20 8 11 1020.3 1019.0 0.0
22/04:00am 18.5 14.2 7.0 47 5.9 ESE 19 26 10 14 1020.0 1018.7 0.0
22/03:30am 18.8 14.6 7.3 47 5.9 ESE 19 24 10 13 1019.8 1018.5 0.0
22/03:00am 19.2 15.0 7.3 46 6.1 ESE 19 24 10 13 1019.7 1018.4 0.0
22/02:30am 19.7 15.5 7.4 45 6.4 ESE 19 26 10 14 1019.9 1018.6 0.0
22/02:00am 20.1 15.9 7.5 44 6.6 SE 19 30 10 16 1020.1 1018.8 0.0
22/01:30am 20.5 16.4 7.8 44 6.6 SE 19 28 10 15 1020.1 1018.8 0.0
22/01:00am 21.1 16.8 8.0 43 6.9 ESE 20 30 11 16 1020.2 1018.9 0.0
22/12:30am 21.3 17.0 7.9 42 7.1 ESE 20 30 11 16 1020.3 1019.0 0.0
22/12:00am 21.7 17.7 8.2 42 7.2 SE 19 28 10 15 1020.3 1019.0 0.0
 
Date/Time
CST
Temp
°C
App
Temp
°C
Dew
Point
Rel
Hum
%
Delta-T
°C
Wind Press
QNH
hPa
Press
MSL
hPa
Rain
since 9 am
mm
Dir
 
Spd
km/h
Gust
km/h
Spd
kts
Gust
kts
21/11:30pm 22.5 17.9 8.2 40 7.6 SE 22 30 12 16 1020.2 1018.9 0.0
21/11:00pm 22.9 18.6 7.8 38 8.0 SE 20 28 11 15 1020.2 1018.9 0.0
21/10:30pm 22.7 19.0 8.0 39 7.8 SE 17 24 9 13 1020.2 1018.9 0.0
21/10:00pm 22.9 19.9 7.8 38 8.0 SE 13 20 7 11 1020.0 1018.7 0.0
21/09:30pm 23.7 20.3 7.8 36 8.5 SE 15 20 8 11 1020.0 1018.7 0.0
21/09:00pm 24.3 20.5 7.4 34 9.0 SE 17 22 9 12 1019.9 1018.6 0.0
21/08:30pm 24.6 21.6 7.7 34 9.0 SE 13 19 7 10 1019.6 1018.3 0.0
21/08:00pm 25.2 22.2 7.8 33 9.4 SE 13 17 7 9 1019.0 1017.8 0.0
21/07:30pm 25.5 22.5 7.6 32 9.6 SE 13 17 7 9 1018.6 1017.4 0.0
21/07:00pm 26.1 23.4 7.2 30 10.1 ESE 11 15 6 8 1018.2 1017.0 0.0
21/06:30pm 27.5 24.0 7.4 28 10.9 SE 15 22 8 12 1017.7 1016.5 0.0
21/06:00pm 28.7 24.8 7.3 26 11.6 ESE 17 26 9 14 1017.4 1016.1 0.0
21/05:30pm 29.8 25.5 7.1 24 12.4 ESE 19 26 10 14 1017.1 1015.8 0.0
21/05:00pm 30.5 26.4 7.7 24 12.6 ESE 19 28 10 15 1016.8 1015.5 0.0
21/04:30pm 30.5 26.0 7.0 23 12.8 ESE 20 28 11 15 1016.6 1015.3 0.0
21/04:00pm 31.3 27.2 7.7 23 13.1 ESE 19 26 10 14 1016.8 1015.5 0.0
21/03:30pm 30.9 26.5 7.4 23 13.0 ESE 20 30 11 16 1016.8 1015.5 0.0
21/03:00pm 31.4 27.3 7.8 23 13.1 ESE 19 32 10 17 1017.1 1015.8 0.0

Other Formats:

Comma delimited format used in spreadsheet applications
http://www.bom.gov.au/fwo/IDD60801/IDD60801.94231.axf

JavaScript Object Notation format (JSON) in row-major order
http://www.bom.gov.au/fwo/IDD60801/IDD60801.94231.json